sensor_id;sensor_type;location;lat;lon;timestamp;temperature;humidity
75430;DHT22;64127;51.488;5.462;2024-03-08T00:00:57;6.70;99.90
75430;DHT22;64127;51.488;5.462;2024-03-08T00:03:29;6.70;99.90
75430;DHT22;64127;51.488;5.462;2024-03-08T00:06:03;6.70;99.90
75430;DHT22;64127;51.488;5.462;2024-03-08T00:08:36;6.70;99.90
75430;DHT22;64127;51.488;5.462;2024-03-08T00:11:08;6.70;99.90
75430;DHT22;64127;51.488;5.462;2024-03-08T00:13:40;6.60;99.90
75430;DHT22;64127;51.488;5.462;2024-03-08T00:16:13;6.60;99.90
75430;DHT22;64127;51.488;5.462;2024-03-08T00:18:45;6.50;99.90
75430;DHT22;64127;51.488;5.462;2024-03-08T00:21:18;6.50;99.90
75430;DHT22;64127;51.488;5.462;2024-03-08T00:23:50;6.50;99.90
75430;DHT22;64127;51.488;5.462;2024-03-08T00:26:22;6.50;99.90
75430;DHT22;64127;51.488;5.462;2024-03-08T00:28:54;6.40;99.90
75430;DHT22;64127;51.488;5.462;2024-03-08T00:31:26;6.40;99.90
75430;DHT22;64127;51.488;5.462;2024-03-08T00:33:59;6.40;99.90
75430;DHT22;64127;51.488;5.462;2024-03-08T00:36:32;6.40;99.90
75430;DHT22;64127;51.488;5.462;2024-03-08T00:39:04;6.40;99.90
75430;DHT22;64127;51.488;5.462;2024-03-08T00:41:38;6.40;99.90
75430;DHT22;64127;51.488;5.462;2024-03-08T00:44:11;6.40;99.90
75430;DHT22;64127;51.488;5.462;2024-03-08T00:46:43;6.30;99.90
75430;DHT22;64127;51.488;5.462;2024-03-08T00:49:15;6.30;99.90
75430;DHT22;64127;51.488;5.462;2024-03-08T00:51:48;6.30;99.90
75430;DHT22;64127;51.488;5.462;2024-03-08T00:54:20;6.20;99.90
75430;DHT22;64127;51.488;5.462;2024-03-08T00:56:52;6.20;99.90
75430;DHT22;64127;51.488;5.462;2024-03-08T00:59:25;6.20;99.90
75430;DHT22;64127;51.488;5.462;2024-03-08T01:01:57;6.20;99.90
75430;DHT22;64127;51.488;5.462;2024-03-08T01:04:30;6.10;99.90
75430;DHT22;64127;51.488;5.462;2024-03-08T01:07:03;6.10;99.90
75430;DHT22;64127;51.488;5.462;2024-03-08T01:09:35;6.10;99.90
75430;DHT22;64127;51.488;5.462;2024-03-08T01:12:07;6.10;99.90
75430;DHT22;64127;51.488;5.462;2024-03-08T01:14:40;6.10;99.90
75430;DHT22;64127;51.488;5.462;2024-03-08T01:17:12;6.00;99.90
75430;DHT22;64127;51.488;5.462;2024-03-08T01:19:44;6.00;99.90
75430;DHT22;64127;51.488;5.462;2024-03-08T01:22:16;6.00;99.90
75430;DHT22;64127;51.488;5.462;2024-03-08T01:24:49;6.00;99.90
75430;DHT22;64127;51.488;5.462;2024-03-08T01:27:21;6.00;99.90
75430;DHT22;64127;51.488;5.462;2024-03-08T01:29:54;6.00;99.90
75430;DHT22;64127;51.488;5.462;2024-03-08T01:32:26;6.00;99.90
75430;DHT22;64127;51.488;5.462;2024-03-08T01:34:58;5.90;99.90
75430;DHT22;64127;51.488;5.462;2024-03-08T01:37:30;5.90;99.90
75430;DHT22;64127;51.488;5.462;2024-03-08T01:40:02;5.90;99.90
75430;DHT22;64127;51.488;5.462;2024-03-08T01:42:35;5.90;99.90
75430;DHT22;64127;51.488;5.462;2024-03-08T01:45:09;5.90;99.90
75430;DHT22;64127;51.488;5.462;2024-03-08T01:47:42;5.90;99.90
75430;DHT22;64127;51.488;5.462;2024-03-08T01:50:14;5.90;99.90
75430;DHT22;64127;51.488;5.462;2024-03-08T01:52:48;5.80;99.90
75430;DHT22;64127;51.488;5.462;2024-03-08T01:55:20;5.80;99.90
75430;DHT22;64127;51.488;5.462;2024-03-08T01:57:53;5.80;99.90
75430;DHT22;64127;51.488;5.462;2024-03-08T02:00:25;5.80;99.90
75430;DHT22;64127;51.488;5.462;2024-03-08T02:02:58;5.70;99.90
75430;DHT22;64127;51.488;5.462;2024-03-08T02:05:31;5.70;99.90
75430;DHT22;64127;51.488;5.462;2024-03-08T02:08:04;5.70;99.90
75430;DHT22;64127;51.488;5.462;2024-03-08T02:10:45;5.70;99.90
75430;DHT22;64127;51.488;5.462;2024-03-08T02:13:18;5.60;99.90
75430;DHT22;64127;51.488;5.462;2024-03-08T02:18:31;5.60;99.90
75430;DHT22;64127;51.488;5.462;2024-03-08T02:21:06;5.60;99.90
75430;DHT22;64127;51.488;5.462;2024-03-08T02:23:40;5.60;99.90
75430;DHT22;64127;51.488;5.462;2024-03-08T02:26:12;5.60;99.90
75430;DHT22;64127;51.488;5.462;2024-03-08T02:28:45;5.50;99.90
75430;DHT22;64127;51.488;5.462;2024-03-08T02:31:18;5.50;99.90
75430;DHT22;64127;51.488;5.462;2024-03-08T02:33:50;5.50;99.90
75430;DHT22;64127;51.488;5.462;2024-03-08T02:36:23;5.50;99.90
75430;DHT22;64127;51.488;5.462;2024-03-08T02:38:55;5.40;99.90
75430;DHT22;64127;51.488;5.462;2024-03-08T02:41:28;5.40;99.90
75430;DHT22;64127;51.488;5.462;2024-03-08T02:44:00;5.40;99.90
75430;DHT22;64127;51.488;5.462;2024-03-08T02:46:32;5.40;99.90
75430;DHT22;64127;51.488;5.462;2024-03-08T02:49:04;5.40;99.90
75430;DHT22;64127;51.488;5.462;2024-03-08T02:51:38;5.40;99.90
75430;DHT22;64127;51.488;5.462;2024-03-08T02:54:10;5.40;99.90
75430;DHT22;64127;51.488;5.462;2024-03-08T02:56:42;5.40;99.90
75430;DHT22;64127;51.488;5.462;2024-03-08T02:59:15;5.30;99.90
75430;DHT22;64127;51.488;5.462;2024-03-08T03:01:49;5.30;99.90
75430;DHT22;64127;51.488;5.462;2024-03-08T03:04:21;5.30;99.90
75430;DHT22;64127;51.488;5.462;2024-03-08T03:06:53;5.30;99.90
75430;DHT22;64127;51.488;5.462;2024-03-08T03:09:26;5.30;99.90
75430;DHT22;64127;51.488;5.462;2024-03-08T03:11:59;5.30;99.90
75430;DHT22;64127;51.488;5.462;2024-03-08T03:14:32;5.20;99.90
75430;DHT22;64127;51.488;5.462;2024-03-08T03:17:05;5.20;99.90
75430;DHT22;64127;51.488;5.462;2024-03-08T03:19:40;5.20;99.90
75430;DHT22;64127;51.488;5.462;2024-03-08T03:22:14;5.20;99.90
75430;DHT22;64127;51.488;5.462;2024-03-08T03:24:47;5.20;99.90
75430;DHT22;64127;51.488;5.462;2024-03-08T03:27:19;5.20;99.90
75430;DHT22;64127;51.488;5.462;2024-03-08T03:29:51;5.10;99.90
75430;DHT22;64127;51.488;5.462;2024-03-08T03:32:24;5.10;99.90
75430;DHT22;64127;51.488;5.462;2024-03-08T03:34:56;5.10;99.90
75430;DHT22;64127;51.488;5.462;2024-03-08T03:37:29;5.10;99.90
75430;DHT22;64127;51.488;5.462;2024-03-08T03:40:01;5.10;99.90
75430;DHT22;64127;51.488;5.462;2024-03-08T03:42:34;5.00;99.90
75430;DHT22;64127;51.488;5.462;2024-03-08T03:45:06;5.00;99.90
75430;DHT22;64127;51.488;5.462;2024-03-08T03:47:38;5.00;99.90
75430;DHT22;64127;51.488;5.462;2024-03-08T03:50:11;5.00;99.90
75430;DHT22;64127;51.488;5.462;2024-03-08T03:52:43;5.00;99.90
75430;DHT22;64127;51.488;5.462;2024-03-08T03:55:15;5.00;99.90
75430;DHT22;64127;51.488;5.462;2024-03-08T03:57:47;5.00;99.90
75430;DHT22;64127;51.488;5.462;2024-03-08T04:00:20;5.00;99.90
75430;DHT22;64127;51.488;5.462;2024-03-08T04:02:52;5.00;99.90
75430;DHT22;64127;51.488;5.462;2024-03-08T04:05:25;5.00;99.90
75430;DHT22;64127;51.488;5.462;2024-03-08T04:07:58;5.00;99.90
75430;DHT22;64127;51.488;5.462;2024-03-08T04:10:30;4.90;99.90
75430;DHT22;64127;51.488;5.462;2024-03-08T04:13:02;5.00;99.90
75430;DHT22;64127;51.488;5.462;2024-03-08T04:15:35;4.90;99.90
75430;DHT22;64127;51.488;5.462;2024-03-08T04:18:09;4.90;99.90
75430;DHT22;64127;51.488;5.462;2024-03-08T04:20:42;4.90;99.90
75430;DHT22;64127;51.488;5.462;2024-03-08T04:23:14;4.90;99.90
75430;DHT22;64127;51.488;5.462;2024-03-08T04:25:47;4.90;99.90
75430;DHT22;64127;51.488;5.462;2024-03-08T04:28:20;4.90;99.90
75430;DHT22;64127;51.488;5.462;2024-03-08T04:30:53;4.90;99.90
75430;DHT22;64127;51.488;5.462;2024-03-08T04:33:27;4.80;99.90
75430;DHT22;64127;51.488;5.462;2024-03-08T04:35:59;4.80;99.90
75430;DHT22;64127;51.488;5.462;2024-03-08T04:38:32;4.90;99.90
75430;DHT22;64127;51.488;5.462;2024-03-08T04:41:04;4.80;99.90
75430;DHT22;64127;51.488;5.462;2024-03-08T04:43:36;4.80;99.90
75430;DHT22;64127;51.488;5.462;2024-03-08T04:46:08;4.80;99.90
75430;DHT22;64127;51.488;5.462;2024-03-08T04:48:41;4.80;99.90
75430;DHT22;64127;51.488;5.462;2024-03-08T04:51:14;4.80;99.90
75430;DHT22;64127;51.488;5.462;2024-03-08T04:53:47;4.70;99.90
75430;DHT22;64127;51.488;5.462;2024-03-08T04:56:20;4.80;99.90
75430;DHT22;64127;51.488;5.462;2024-03-08T04:58:53;4.80;99.90
75430;DHT22;64127;51.488;5.462;2024-03-08T05:01:25;4.70;99.90
75430;DHT22;64127;51.488;5.462;2024-03-08T05:03:57;4.70;99.90
75430;DHT22;64127;51.488;5.462;2024-03-08T05:06:36;4.70;99.90
75430;DHT22;64127;51.488;5.462;2024-03-08T05:09:08;4.70;99.90
75430;DHT22;64127;51.488;5.462;2024-03-08T05:11:50;4.60;99.90
75430;DHT22;64127;51.488;5.462;2024-03-08T05:14:23;4.60;99.90
75430;DHT22;64127;51.488;5.462;2024-03-08T05:16:56;4.60;99.90
75430;DHT22;64127;51.488;5.462;2024-03-08T05:19:29;4.60;99.90
75430;DHT22;64127;51.488;5.462;2024-03-08T05:22:06;4.60;99.90
75430;DHT22;64127;51.488;5.462;2024-03-08T05:24:38;4.50;99.90
75430;DHT22;64127;51.488;5.462;2024-03-08T05:27:10;4.50;99.90
75430;DHT22;64127;51.488;5.462;2024-03-08T05:29:42;4.50;99.90
75430;DHT22;64127;51.488;5.462;2024-03-08T05:32:15;4.60;99.90
75430;DHT22;64127;51.488;5.462;2024-03-08T05:34:47;4.50;99.90
75430;DHT22;64127;51.488;5.462;2024-03-08T05:37:19;4.50;99.90
75430;DHT22;64127;51.488;5.462;2024-03-08T05:39:52;4.50;99.90
75430;DHT22;64127;51.488;5.462;2024-03-08T05:42:26;4.50;99.90
75430;DHT22;64127;51.488;5.462;2024-03-08T05:45:00;4.40;99.90
75430;DHT22;64127;51.488;5.462;2024-03-08T05:47:32;4.50;99.90
75430;DHT22;64127;51.488;5.462;2024-03-08T05:50:05;4.40;99.90
75430;DHT22;64127;51.488;5.462;2024-03-08T05:52:42;4.40;99.90
75430;DHT22;64127;51.488;5.462;2024-03-08T05:55:15;4.40;99.90
75430;DHT22;64127;51.488;5.462;2024-03-08T05:57:47;4.30;99.90
75430;DHT22;64127;51.488;5.462;2024-03-08T06:00:20;4.30;99.90
75430;DHT22;64127;51.488;5.462;2024-03-08T06:02:54;4.30;99.90
75430;DHT22;64127;51.488;5.462;2024-03-08T06:05:27;4.30;99.90
75430;DHT22;64127;51.488;5.462;2024-03-08T06:08:00;4.30;99.90
75430;DHT22;64127;51.488;5.462;2024-03-08T06:10:32;4.30;99.90
75430;DHT22;64127;51.488;5.462;2024-03-08T06:13:04;4.30;99.90
75430;DHT22;64127;51.488;5.462;2024-03-08T06:15:37;4.30;99.90
75430;DHT22;64127;51.488;5.462;2024-03-08T06:18:09;4.30;99.90
75430;DHT22;64127;51.488;5.462;2024-03-08T06:20:43;4.30;99.90
75430;DHT22;64127;51.488;5.462;2024-03-08T06:23:15;4.30;99.90
75430;DHT22;64127;51.488;5.462;2024-03-08T06:25:49;4.30;99.90
75430;DHT22;64127;51.488;5.462;2024-03-08T06:28:22;4.20;99.90
75430;DHT22;64127;51.488;5.462;2024-03-08T06:30:54;4.20;99.90
75430;DHT22;64127;51.488;5.462;2024-03-08T06:33:26;4.20;99.90
75430;DHT22;64127;51.488;5.462;2024-03-08T06:35:59;4.20;99.90
75430;DHT22;64127;51.488;5.462;2024-03-08T06:38:31;4.20;99.90
75430;DHT22;64127;51.488;5.462;2024-03-08T06:41:04;4.20;99.90
75430;DHT22;64127;51.488;5.462;2024-03-08T06:43:36;4.30;99.90
75430;DHT22;64127;51.488;5.462;2024-03-08T06:46:08;4.30;99.90
75430;DHT22;64127;51.488;5.462;2024-03-08T06:48:41;4.30;99.90
75430;DHT22;64127;51.488;5.462;2024-03-08T06:51:14;4.30;99.90
75430;DHT22;64127;51.488;5.462;2024-03-08T06:53:47;4.30;99.90
75430;DHT22;64127;51.488;5.462;2024-03-08T06:56:20;4.40;99.90
75430;DHT22;64127;51.488;5.462;2024-03-08T06:58:55;4.40;99.90
75430;DHT22;64127;51.488;5.462;2024-03-08T07:01:27;4.50;99.90
75430;DHT22;64127;51.488;5.462;2024-03-08T07:03:59;4.50;99.90
75430;DHT22;64127;51.488;5.462;2024-03-08T07:06:33;4.60;99.90
75430;DHT22;64127;51.488;5.462;2024-03-08T07:09:06;4.70;99.90
75430;DHT22;64127;51.488;5.462;2024-03-08T07:11:38;4.70;99.90
75430;DHT22;64127;51.488;5.462;2024-03-08T07:14:13;4.80;99.90
75430;DHT22;64127;51.488;5.462;2024-03-08T07:16:47;4.90;99.90
75430;DHT22;64127;51.488;5.462;2024-03-08T07:19:19;5.00;99.90
75430;DHT22;64127;51.488;5.462;2024-03-08T07:21:53;5.00;99.90
75430;DHT22;64127;51.488;5.462;2024-03-08T07:24:27;5.10;99.90
75430;DHT22;64127;51.488;5.462;2024-03-08T07:27:17;5.20;99.90
75430;DHT22;64127;51.488;5.462;2024-03-08T07:29:50;5.30;99.90
75430;DHT22;64127;51.488;5.462;2024-03-08T07:32:22;5.40;99.90
75430;DHT22;64127;51.488;5.462;2024-03-08T07:34:55;5.50;99.90
75430;DHT22;64127;51.488;5.462;2024-03-08T07:37:28;5.60;99.90
75430;DHT22;64127;51.488;5.462;2024-03-08T07:40:00;5.70;99.90
75430;DHT22;64127;51.488;5.462;2024-03-08T07:42:32;5.80;99.90
75430;DHT22;64127;51.488;5.462;2024-03-08T07:45:05;5.90;99.90
75430;DHT22;64127;51.488;5.462;2024-03-08T07:47:40;6.10;99.90
75430;DHT22;64127;51.488;5.462;2024-03-08T07:50:12;6.20;99.90
75430;DHT22;64127;51.488;5.462;2024-03-08T07:52:48;6.30;99.90
75430;DHT22;64127;51.488;5.462;2024-03-08T07:55:20;6.40;99.90
75430;DHT22;64127;51.488;5.462;2024-03-08T07:57:56;6.60;99.90
75430;DHT22;64127;51.488;5.462;2024-03-08T08:00:29;6.60;99.90
75430;DHT22;64127;51.488;5.462;2024-03-08T08:03:04;6.70;99.90
75430;DHT22;64127;51.488;5.462;2024-03-08T08:05:37;6.80;99.90
75430;DHT22;64127;51.488;5.462;2024-03-08T08:08:10;6.90;99.90
75430;DHT22;64127;51.488;5.462;2024-03-08T08:10:43;7.10;99.90
75430;DHT22;64127;51.488;5.462;2024-03-08T08:13:15;7.10;99.90
75430;DHT22;64127;51.488;5.462;2024-03-08T08:15:48;7.30;99.90
75430;DHT22;64127;51.488;5.462;2024-03-08T08:18:20;7.30;99.90
75430;DHT22;64127;51.488;5.462;2024-03-08T08:20:56;7.40;99.90
75430;DHT22;64127;51.488;5.462;2024-03-08T08:23:28;7.50;99.90
75430;DHT22;64127;51.488;5.462;2024-03-08T08:26:04;7.60;99.90
75430;DHT22;64127;51.488;5.462;2024-03-08T08:28:37;7.70;99.80
75430;DHT22;64127;51.488;5.462;2024-03-08T08:31:10;7.80;99.60
75430;DHT22;64127;51.488;5.462;2024-03-08T08:33:42;7.90;99.40
75430;DHT22;64127;51.488;5.462;2024-03-08T08:36:18;8.00;99.30
75430;DHT22;64127;51.488;5.462;2024-03-08T08:38:50;8.10;99.10
75430;DHT22;64127;51.488;5.462;2024-03-08T08:41:22;8.20;99.00
75430;DHT22;64127;51.488;5.462;2024-03-08T08:43:54;8.30;98.60
75430;DHT22;64127;51.488;5.462;2024-03-08T08:46:45;8.40;98.40
75430;DHT22;64127;51.488;5.462;2024-03-08T08:49:17;8.50;98.20
75430;DHT22;64127;51.488;5.462;2024-03-08T08:51:52;8.60;97.90
75430;DHT22;64127;51.488;5.462;2024-03-08T08:54:29;8.70;97.50
75430;DHT22;64127;51.488;5.462;2024-03-08T08:57:03;8.80;97.30
75430;DHT22;64127;51.488;5.462;2024-03-08T08:59:39;8.80;97.20
75430;DHT22;64127;51.488;5.462;2024-03-08T09:02:11;8.90;97.00
75430;DHT22;64127;51.488;5.462;2024-03-08T09:04:48;9.00;96.90
75430;DHT22;64127;51.488;5.462;2024-03-08T09:07:20;9.10;96.60
75430;DHT22;64127;51.488;5.462;2024-03-08T09:09:52;9.20;96.40
75430;DHT22;64127;51.488;5.462;2024-03-08T09:12:28;9.30;96.10
75430;DHT22;64127;51.488;5.462;2024-03-08T09:15:01;9.40;96.00
75430;DHT22;64127;51.488;5.462;2024-03-08T09:17:33;9.50;96.00
75430;DHT22;64127;51.488;5.462;2024-03-08T09:20:10;9.70;95.60
75430;DHT22;64127;51.488;5.462;2024-03-08T09:22:46;9.80;95.20
75430;DHT22;64127;51.488;5.462;2024-03-08T09:25:18;9.90;95.00
75430;DHT22;64127;51.488;5.462;2024-03-08T09:27:50;10.10;94.30
75430;DHT22;64127;51.488;5.462;2024-03-08T09:30:22;10.20;94.10
75430;DHT22;64127;51.488;5.462;2024-03-08T09:32:56;10.30;93.70
75430;DHT22;64127;51.488;5.462;2024-03-08T09:35:30;10.30;93.30
75430;DHT22;64127;51.488;5.462;2024-03-08T09:38:02;10.40;93.10
75430;DHT22;64127;51.488;5.462;2024-03-08T09:40:36;10.50;93.00
75430;DHT22;64127;51.488;5.462;2024-03-08T09:43:09;10.50;92.60
75430;DHT22;64127;51.488;5.462;2024-03-08T09:45:45;10.70;92.50
75430;DHT22;64127;51.488;5.462;2024-03-08T09:48:22;10.80;92.10
75430;DHT22;64127;51.488;5.462;2024-03-08T09:50:55;10.80;91.90
75430;DHT22;64127;51.488;5.462;2024-03-08T09:53:28;11.00;91.60
75430;DHT22;64127;51.488;5.462;2024-03-08T09:56:01;11.10;91.40
75430;DHT22;64127;51.488;5.462;2024-03-08T09:58:36;11.20;91.20
75430;DHT22;64127;51.488;5.462;2024-03-08T10:01:14;11.30;90.80
75430;DHT22;64127;51.488;5.462;2024-03-08T10:03:47;11.40;90.40
75430;DHT22;64127;51.488;5.462;2024-03-08T10:06:23;11.50;90.00
75430;DHT22;64127;51.488;5.462;2024-03-08T10:08:56;11.50;90.00
75430;DHT22;64127;51.488;5.462;2024-03-08T10:11:30;11.50;89.60
75430;DHT22;64127;51.488;5.462;2024-03-08T10:14:02;11.50;89.10
75430;DHT22;64127;51.488;5.462;2024-03-08T10:16:34;11.60;89.10
75430;DHT22;64127;51.488;5.462;2024-03-08T10:19:07;11.70;88.60
75430;DHT22;64127;51.488;5.462;2024-03-08T10:21:52;11.80;88.40
75430;DHT22;64127;51.488;5.462;2024-03-08T10:24:28;12.00;87.80
75430;DHT22;64127;51.488;5.462;2024-03-08T10:27:01;12.00;87.20
75430;DHT22;64127;51.488;5.462;2024-03-08T10:29:36;12.10;86.50
75430;DHT22;64127;51.488;5.462;2024-03-08T10:32:10;12.10;86.20
75430;DHT22;64127;51.488;5.462;2024-03-08T10:34:43;12.20;86.10
75430;DHT22;64127;51.488;5.462;2024-03-08T10:37:21;12.20;85.70
75430;DHT22;64127;51.488;5.462;2024-03-08T10:40:04;12.20;85.20
75430;DHT22;64127;51.488;5.462;2024-03-08T10:42:55;12.30;85.00
75430;DHT22;64127;51.488;5.462;2024-03-08T10:45:38;12.30;84.60
75430;DHT22;64127;51.488;5.462;2024-03-08T10:48:31;12.50;84.50
75430;DHT22;64127;51.488;5.462;2024-03-08T10:51:11;12.50;84.00
75430;DHT22;64127;51.488;5.462;2024-03-08T10:53:44;12.60;83.60
75430;DHT22;64127;51.488;5.462;2024-03-08T10:56:20;12.70;82.60
75430;DHT22;64127;51.488;5.462;2024-03-08T10:58:54;12.70;82.50
75430;DHT22;64127;51.488;5.462;2024-03-08T11:01:28;12.80;81.60
75430;DHT22;64127;51.488;5.462;2024-03-08T11:04:04;12.80;81.00
75430;DHT22;64127;51.488;5.462;2024-03-08T11:09:27;13.00;80.70
75430;DHT22;64127;51.488;5.462;2024-03-08T11:14:53;13.20;79.50
75430;DHT22;64127;51.488;5.462;2024-03-08T11:17:45;13.20;79.30
75430;DHT22;64127;51.488;5.462;2024-03-08T11:20:20;13.40;78.90
75430;DHT22;64127;51.488;5.462;2024-03-08T11:23:01;13.40;78.10
75430;DHT22;64127;51.488;5.462;2024-03-08T11:25:41;13.40;77.00
75430;DHT22;64127;51.488;5.462;2024-03-08T11:33:34;13.60;75.60
75430;DHT22;64127;51.488;5.462;2024-03-08T11:36:10;13.70;74.80
75430;DHT22;64127;51.488;5.462;2024-03-08T11:38:44;13.70;74.00
75430;DHT22;64127;51.488;5.462;2024-03-08T11:41:21;13.80;73.80
75430;DHT22;64127;51.488;5.462;2024-03-08T11:44:04;13.90;73.50
75430;DHT22;64127;51.488;5.462;2024-03-08T11:46:38;14.00;72.70
75430;DHT22;64127;51.488;5.462;2024-03-08T11:49:14;14.00;72.10
75430;DHT22;64127;51.488;5.462;2024-03-08T11:51:47;14.00;71.20
75430;DHT22;64127;51.488;5.462;2024-03-08T11:54:24;14.00;71.20
75430;DHT22;64127;51.488;5.462;2024-03-08T11:56:59;14.00;71.00
75430;DHT22;64127;51.488;5.462;2024-03-08T11:59:32;14.00;70.80
75430;DHT22;64127;51.488;5.462;2024-03-08T12:02:05;14.10;70.90
75430;DHT22;64127;51.488;5.462;2024-03-08T12:04:38;14.30;71.00
75430;DHT22;64127;51.488;5.462;2024-03-08T12:07:10;14.40;70.10
75430;DHT22;64127;51.488;5.462;2024-03-08T12:09:44;14.40;69.70
75430;DHT22;64127;51.488;5.462;2024-03-08T12:12:53;14.40;69.50
75430;DHT22;64127;51.488;5.462;2024-03-08T12:15:27;14.40;68.90
75430;DHT22;64127;51.488;5.462;2024-03-08T12:18:01;14.30;68.40
75430;DHT22;64127;51.488;5.462;2024-03-08T12:20:33;14.30;68.00
75430;DHT22;64127;51.488;5.462;2024-03-08T12:23:05;14.30;67.80
75430;DHT22;64127;51.488;5.462;2024-03-08T12:25:37;14.20;67.40
75430;DHT22;64127;51.488;5.462;2024-03-08T12:28:11;14.30;67.30
75430;DHT22;64127;51.488;5.462;2024-03-08T12:30:49;14.40;67.10
75430;DHT22;64127;51.488;5.462;2024-03-08T12:33:27;14.50;66.20
75430;DHT22;64127;51.488;5.462;2024-03-08T12:36:00;14.60;66.30
75430;DHT22;64127;51.488;5.462;2024-03-08T12:38:32;14.70;66.40
75430;DHT22;64127;51.488;5.462;2024-03-08T12:41:04;14.80;66.10
75430;DHT22;64127;51.488;5.462;2024-03-08T12:43:36;15.00;65.70
75430;DHT22;64127;51.488;5.462;2024-03-08T12:46:08;15.10;64.60
75430;DHT22;64127;51.488;5.462;2024-03-08T12:48:41;14.90;64.10
75430;DHT22;64127;51.488;5.462;2024-03-08T12:51:20;14.90;64.30
75430;DHT22;64127;51.488;5.462;2024-03-08T12:53:53;15.00;64.50
75430;DHT22;64127;51.488;5.462;2024-03-08T12:56:32;15.10;64.00
75430;DHT22;64127;51.488;5.462;2024-03-08T12:59:07;15.20;63.60
75430;DHT22;64127;51.488;5.462;2024-03-08T13:01:40;15.20;63.50
75430;DHT22;64127;51.488;5.462;2024-03-08T13:04:12;15.30;63.60
75430;DHT22;64127;51.488;5.462;2024-03-08T13:06:45;15.40;63.30
75430;DHT22;64127;51.488;5.462;2024-03-08T13:09:21;15.50;63.30
75430;DHT22;64127;51.488;5.462;2024-03-08T13:11:54;15.50;62.00
75430;DHT22;64127;51.488;5.462;2024-03-08T13:14:27;15.40;62.10
75430;DHT22;64127;51.488;5.462;2024-03-08T13:16:59;15.50;62.20
75430;DHT22;64127;51.488;5.462;2024-03-08T13:19:31;15.50;62.10
75430;DHT22;64127;51.488;5.462;2024-03-08T13:22:04;15.60;62.00
75430;DHT22;64127;51.488;5.462;2024-03-08T13:24:36;15.60;61.50
75430;DHT22;64127;51.488;5.462;2024-03-08T13:27:09;15.60;61.40
75430;DHT22;64127;51.488;5.462;2024-03-08T13:29:57;15.50;61.20
75430;DHT22;64127;51.488;5.462;2024-03-08T13:32:29;15.50;61.00
75430;DHT22;64127;51.488;5.462;2024-03-08T13:35:03;15.50;60.90
75430;DHT22;64127;51.488;5.462;2024-03-08T13:37:36;15.60;61.30
75430;DHT22;64127;51.488;5.462;2024-03-08T13:40:09;15.70;61.00
75430;DHT22;64127;51.488;5.462;2024-03-08T13:42:50;15.70;60.60
75430;DHT22;64127;51.488;5.462;2024-03-08T13:45:23;15.80;60.60
75430;DHT22;64127;51.488;5.462;2024-03-08T13:47:56;15.90;60.30
75430;DHT22;64127;51.488;5.462;2024-03-08T13:50:28;15.90;60.10
75430;DHT22;64127;51.488;5.462;2024-03-08T13:53:01;16.00;60.00
75430;DHT22;64127;51.488;5.462;2024-03-08T13:55:35;16.00;59.70
75430;DHT22;64127;51.488;5.462;2024-03-08T13:58:08;16.00;59.60
75430;DHT22;64127;51.488;5.462;2024-03-08T14:00:41;16.10;59.70
75430;DHT22;64127;51.488;5.462;2024-03-08T14:03:15;16.30;59.50
75430;DHT22;64127;51.488;5.462;2024-03-08T14:05:47;16.30;59.10
75430;DHT22;64127;51.488;5.462;2024-03-08T14:08:19;16.30;58.90
75430;DHT22;64127;51.488;5.462;2024-03-08T14:10:51;16.30;58.70
75430;DHT22;64127;51.488;5.462;2024-03-08T14:13:25;16.40;58.60
75430;DHT22;64127;51.488;5.462;2024-03-08T14:15:58;16.40;59.00
75430;DHT22;64127;51.488;5.462;2024-03-08T14:18:31;16.30;57.90
75430;DHT22;64127;51.488;5.462;2024-03-08T14:21:05;16.20;57.80
75430;DHT22;64127;51.488;5.462;2024-03-08T14:23:43;16.20;57.80
75430;DHT22;64127;51.488;5.462;2024-03-08T14:26:15;16.20;57.90
75430;DHT22;64127;51.488;5.462;2024-03-08T14:28:48;16.30;57.90
75430;DHT22;64127;51.488;5.462;2024-03-08T14:31:23;16.40;57.70
75430;DHT22;64127;51.488;5.462;2024-03-08T14:33:58;16.60;57.70
75430;DHT22;64127;51.488;5.462;2024-03-08T14:36:30;16.70;57.30
75430;DHT22;64127;51.488;5.462;2024-03-08T14:39:03;16.70;56.90
75430;DHT22;64127;51.488;5.462;2024-03-08T14:41:35;16.70;56.70
75430;DHT22;64127;51.488;5.462;2024-03-08T14:44:08;16.70;56.70
75430;DHT22;64127;51.488;5.462;2024-03-08T14:46:40;16.80;56.80
75430;DHT22;64127;51.488;5.462;2024-03-08T14:49:15;17.00;56.70
75430;DHT22;64127;51.488;5.462;2024-03-08T14:51:47;17.20;54.70
75430;DHT22;64127;51.488;5.462;2024-03-08T14:54:19;17.30;54.70
75430;DHT22;64127;51.488;5.462;2024-03-08T14:56:54;17.20;54.60
75430;DHT22;64127;51.488;5.462;2024-03-08T14:59:28;17.10;54.80
75430;DHT22;64127;51.488;5.462;2024-03-08T15:02:02;17.10;54.80
75430;DHT22;64127;51.488;5.462;2024-03-08T15:04:38;17.00;54.60
75430;DHT22;64127;51.488;5.462;2024-03-08T15:07:12;17.10;54.70
75430;DHT22;64127;51.488;5.462;2024-03-08T15:09:44;17.10;54.50
75430;DHT22;64127;51.488;5.462;2024-03-08T15:12:16;17.20;54.40
75430;DHT22;64127;51.488;5.462;2024-03-08T15:14:49;17.10;54.30
75430;DHT22;64127;51.488;5.462;2024-03-08T15:17:23;17.30;54.00
75430;DHT22;64127;51.488;5.462;2024-03-08T15:19:56;17.30;53.80
75430;DHT22;64127;51.488;5.462;2024-03-08T15:22:28;17.60;54.00
75430;DHT22;64127;51.488;5.462;2024-03-08T15:25:00;17.80;53.70
75430;DHT22;64127;51.488;5.462;2024-03-08T15:27:32;18.00;53.30
75430;DHT22;64127;51.488;5.462;2024-03-08T15:30:05;18.00;52.80
75430;DHT22;64127;51.488;5.462;2024-03-08T15:32:45;18.10;52.60
75430;DHT22;64127;51.488;5.462;2024-03-08T15:35:19;18.10;52.40
75430;DHT22;64127;51.488;5.462;2024-03-08T15:37:53;18.10;52.00
75430;DHT22;64127;51.488;5.462;2024-03-08T15:40:29;18.10;51.80
75430;DHT22;64127;51.488;5.462;2024-03-08T15:43:03;18.00;51.70
75430;DHT22;64127;51.488;5.462;2024-03-08T15:45:35;18.00;51.70
75430;DHT22;64127;51.488;5.462;2024-03-08T15:48:09;18.10;51.60
75430;DHT22;64127;51.488;5.462;2024-03-08T15:50:42;18.20;51.40
75430;DHT22;64127;51.488;5.462;2024-03-08T15:53:14;18.30;51.00
75430;DHT22;64127;51.488;5.462;2024-03-08T15:55:48;18.30;50.70
75430;DHT22;64127;51.488;5.462;2024-03-08T15:58:20;18.40;50.40
75430;DHT22;64127;51.488;5.462;2024-03-08T16:00:52;18.40;50.20
75430;DHT22;64127;51.488;5.462;2024-03-08T16:03:25;18.30;50.10
75430;DHT22;64127;51.488;5.462;2024-03-08T16:06:00;18.20;50.00
75430;DHT22;64127;51.488;5.462;2024-03-08T16:08:32;18.30;50.10
75430;DHT22;64127;51.488;5.462;2024-03-08T16:11:08;18.40;49.90
75430;DHT22;64127;51.488;5.462;2024-03-08T16:13:42;18.70;49.50
75430;DHT22;64127;51.488;5.462;2024-03-08T16:16:15;18.90;49.10
75430;DHT22;64127;51.488;5.462;2024-03-08T16:18:47;19.00;48.80
75430;DHT22;64127;51.488;5.462;2024-03-08T16:21:19;19.10;48.70
75430;DHT22;64127;51.488;5.462;2024-03-08T16:23:51;19.10;48.40
75430;DHT22;64127;51.488;5.462;2024-03-08T16:26:25;18.80;48.30
75430;DHT22;64127;51.488;5.462;2024-03-08T16:28:59;18.50;48.80
75430;DHT22;64127;51.488;5.462;2024-03-08T16:31:32;18.10;49.10
75430;DHT22;64127;51.488;5.462;2024-03-08T16:34:04;17.80;49.60